WIF88H ENBR-ENHD
Flight info
| Callsign | WIF88H |
|---|---|
| Flight time | 0h 21m |
| Altitude | 15000 |
| Route | BEGOD |
| Aircraft | DH8D/M-SDFGRY/SB1 |
Departure
| Time | 2026-04-26 23:49 |
|---|---|
| Airport | Bergen Airport, Flesland (ENBR) |
Arrival
| Time | 2026-04-27 00:10 |
|---|---|
| Airport | Haugesund Airport, Karmøy (ENHD) |
| Time | Latitude | Longitude | Altitude | Speed | Heading |
|---|---|---|---|---|---|
| 2026-04-26 23:35 | 60.29083 | 5.22565 | 173 ft | 0 kts | 32° |
| 2026-04-26 23:44 | 60.29085 | 5.22573 | 173 ft | 1 kts | 79° |
| 2026-04-26 23:45 | 60.29066 | 5.22580 | 173 ft | 6 kts | 195° |
| 2026-04-26 23:45 | 60.29032 | 5.22472 | 173 ft | 11 kts | 259° |
| 2026-04-26 23:45 | 60.28980 | 5.22382 | 172 ft | 10 kts | 174° |
| 2026-04-26 23:45 | 60.28919 | 5.22316 | 172 ft | 10 kts | 218° |
| 2026-04-26 23:46 | 60.28846 | 5.22301 | 172 ft | 10 kts | 170° |
| 2026-04-26 23:46 | 60.28738 | 5.22338 | 172 ft | 17 kts | 170° |
| 2026-04-26 23:46 | 60.28614 | 5.22380 | 171 ft | 18 kts | 170° |
| 2026-04-26 23:46 | 60.28482 | 5.22424 | 169 ft | 19 kts | 170° |
| 2026-04-26 23:47 | 60.28351 | 5.22469 | 167 ft | 19 kts | 170° |
| 2026-04-26 23:47 | 60.28217 | 5.22513 | 166 ft | 19 kts | 170° |
| 2026-04-26 23:47 | 60.28088 | 5.22545 | 163 ft | 17 kts | 195° |
| 2026-04-26 23:47 | 60.28046 | 5.22344 | 160 ft | 14 kts | 278° |
| 2026-04-26 23:48 | 60.28112 | 5.22225 | 160 ft | 12 kts | 350° |
| 2026-04-26 23:48 | 60.28275 | 5.22172 | 163 ft | 60 kts | 351° |
| 2026-04-26 23:48 | 60.28979 | 5.21934 | 183 ft | 134 kts | 352° |
| 2026-04-26 23:48 | 60.29971 | 5.21633 | 628 ft | 155 kts | 352° |
| 2026-04-26 23:49 | 60.31067 | 5.21296 | 1340 ft | 166 kts | 352° |
| 2026-04-26 23:49 | 60.32169 | 5.20948 | 2221 ft | 166 kts | 351° |
| 2026-04-26 23:49 | 60.33297 | 5.20585 | 3071 ft | 166 kts | 351° |
| 2026-04-26 23:49 | 60.34438 | 5.20212 | 3770 ft | 170 kts | 351° |
| 2026-04-26 23:50 | 60.35603 | 5.19829 | 4500 ft | 173 kts | 351° |
| 2026-04-26 23:50 | 60.36782 | 5.19437 | 5217 ft | 175 kts | 351° |
| 2026-04-26 23:50 | 60.37970 | 5.19041 | 5907 ft | 177 kts | 351° |
| 2026-04-26 23:50 | 60.39183 | 5.18635 | 6594 ft | 179 kts | 351° |
| 2026-04-26 23:51 | 60.40412 | 5.18224 | 7274 ft | 182 kts | 351° |
| 2026-04-26 23:51 | 60.41656 | 5.17805 | 7954 ft | 184 kts | 351° |
| 2026-04-26 23:51 | 60.42985 | 5.17358 | 8260 ft | 211 kts | 351° |
| 2026-04-26 23:51 | 60.44481 | 5.16843 | 8622 ft | 225 kts | 350° |
| 2026-04-26 23:52 | 60.46052 | 5.16300 | 9168 ft | 232 kts | 350° |
| 2026-04-26 23:52 | 60.47592 | 5.15451 | 9774 ft | 235 kts | 331° |
| 2026-04-26 23:52 | 60.48650 | 5.13031 | 10371 ft | 238 kts | 291° |
| 2026-04-26 23:52 | 60.48777 | 5.09680 | 11006 ft | 241 kts | 264° |
| 2026-04-26 23:53 | 60.48539 | 5.06337 | 11682 ft | 244 kts | 262° |
| 2026-04-26 23:53 | 60.48275 | 5.02959 | 12316 ft | 246 kts | 262° |
| 2026-04-26 23:53 | 60.47706 | 4.99714 | 12876 ft | 251 kts | 236° |
| 2026-04-26 23:53 | 60.46294 | 4.97643 | 13363 ft | 261 kts | 200° |
| 2026-04-26 23:54 | 60.44485 | 4.97400 | 13855 ft | 268 kts | 178° |
| 2026-04-26 23:54 | 60.42618 | 4.97766 | 14355 ft | 272 kts | 176° |
| 2026-04-26 23:54 | 60.40748 | 4.98163 | 14733 ft | 274 kts | 176° |
| 2026-04-26 23:54 | 60.38843 | 4.98570 | 15058 ft | 275 kts | 176° |
| 2026-04-26 23:55 | 60.36917 | 4.98976 | 15216 ft | 285 kts | 176° |
| 2026-04-26 23:55 | 60.34908 | 4.99397 | 15309 ft | 298 kts | 176° |
| 2026-04-26 23:55 | 60.32791 | 4.99839 | 15349 ft | 312 kts | 176° |
| 2026-04-26 23:55 | 60.30612 | 5.00296 | 15358 ft | 325 kts | 176° |
| 2026-04-26 23:56 | 60.28328 | 5.00775 | 15358 ft | 334 kts | 176° |
| 2026-04-26 23:56 | 60.26009 | 5.01497 | 15341 ft | 343 kts | 172° |
| 2026-04-26 23:56 | 60.23650 | 5.02440 | 15331 ft | 348 kts | 171° |
| 2026-04-26 23:56 | 60.21267 | 5.03397 | 15328 ft | 352 kts | 171° |
| 2026-04-26 23:57 | 60.18870 | 5.04356 | 15327 ft | 354 kts | 171° |
| 2026-04-26 23:57 | 60.16448 | 5.05309 | 15324 ft | 356 kts | 172° |
| 2026-04-26 23:57 | 60.13996 | 5.05973 | 15327 ft | 357 kts | 176° |
| 2026-04-26 23:57 | 60.11506 | 5.06501 | 15327 ft | 358 kts | 176° |
| 2026-04-26 23:58 | 60.09045 | 5.07019 | 15325 ft | 359 kts | 176° |
| 2026-04-26 23:58 | 60.06580 | 5.07536 | 15315 ft | 359 kts | 176° |
| 2026-04-26 23:58 | 60.04104 | 5.08057 | 15310 ft | 359 kts | 176° |
| 2026-04-26 23:58 | 60.01604 | 5.08584 | 15308 ft | 359 kts | 176° |
| 2026-04-26 23:59 | 59.99137 | 5.09105 | 15307 ft | 359 kts | 176° |
| 2026-04-26 23:59 | 59.96656 | 5.09628 | 15318 ft | 359 kts | 176° |
| 2026-04-26 23:59 | 59.94177 | 5.10149 | 15323 ft | 360 kts | 176° |
| 2026-04-26 23:59 | 59.91697 | 5.10670 | 15323 ft | 360 kts | 176° |
| 2026-04-27 00:00 | 59.89206 | 5.11194 | 15322 ft | 361 kts | 176° |
| 2026-04-27 00:00 | 59.86709 | 5.11717 | 15329 ft | 361 kts | 176° |
| 2026-04-27 00:00 | 59.84227 | 5.12238 | 15331 ft | 361 kts | 176° |
| 2026-04-27 00:00 | 59.81702 | 5.12768 | 15330 ft | 361 kts | 176° |
| 2026-04-27 00:01 | 59.79216 | 5.13287 | 15331 ft | 362 kts | 176° |
| 2026-04-27 00:01 | 59.76718 | 5.13760 | 15327 ft | 361 kts | 178° |
| 2026-04-27 00:01 | 59.74242 | 5.14156 | 15327 ft | 361 kts | 178° |
| 2026-04-27 00:01 | 59.71776 | 5.14555 | 15128 ft | 350 kts | 178° |
| 2026-04-27 00:02 | 59.69362 | 5.14948 | 14763 ft | 347 kts | 178° |
| 2026-04-27 00:02 | 59.66991 | 5.15333 | 14341 ft | 347 kts | 178° |
| 2026-04-27 00:02 | 59.64585 | 5.15803 | 13866 ft | 348 kts | 173° |
| 2026-04-27 00:02 | 59.62339 | 5.17497 | 13460 ft | 349 kts | 152° |
| 2026-04-27 00:03 | 59.60270 | 5.19951 | 12997 ft | 348 kts | 149° |
| 2026-04-27 00:03 | 59.58234 | 5.22419 | 12543 ft | 341 kts | 149° |
| 2026-04-27 00:03 | 59.56231 | 5.24854 | 12040 ft | 334 kts | 149° |
| 2026-04-27 00:03 | 59.54287 | 5.27216 | 11412 ft | 325 kts | 149° |
| 2026-04-27 00:04 | 59.52410 | 5.29485 | 10799 ft | 317 kts | 149° |
| 2026-04-27 00:04 | 59.50562 | 5.31711 | 10150 ft | 311 kts | 149° |
| 2026-04-27 00:04 | 59.48759 | 5.33810 | 9537 ft | 285 kts | 153° |
| 2026-04-27 00:04 | 59.47013 | 5.35204 | 9061 ft | 261 kts | 163° |
| 2026-04-27 00:05 | 59.45322 | 5.35991 | 8776 ft | 237 kts | 172° |
| 2026-04-27 00:05 | 59.43742 | 5.36414 | 8337 ft | 227 kts | 175° |
| 2026-04-27 00:05 | 59.42198 | 5.36802 | 7814 ft | 223 kts | 174° |
| 2026-04-27 00:05 | 59.40673 | 5.37268 | 7227 ft | 221 kts | 172° |
| 2026-04-27 00:06 | 59.39187 | 5.37760 | 6761 ft | 213 kts | 171° |
| 2026-04-27 00:06 | 59.37780 | 5.38274 | 6408 ft | 202 kts | 170° |
| 2026-04-27 00:06 | 59.36425 | 5.38764 | 6038 ft | 193 kts | 171° |
| 2026-04-27 00:06 | 59.35116 | 5.39213 | 5599 ft | 188 kts | 170° |
| 2026-04-27 00:07 | 59.33859 | 5.39680 | 5141 ft | 184 kts | 171° |
| 2026-04-27 00:07 | 59.32589 | 5.39736 | 4639 ft | 182 kts | 189° |
| 2026-04-27 00:07 | 59.31432 | 5.38982 | 4246 ft | 171 kts | 210° |
| 2026-04-27 00:07 | 59.30557 | 5.37522 | 3849 ft | 164 kts | 233° |
| 2026-04-27 00:08 | 59.30072 | 5.35600 | 3495 ft | 156 kts | 254° |
| 2026-04-27 00:08 | 59.29846 | 5.33552 | 3051 ft | 152 kts | 264° |
| 2026-04-27 00:08 | 59.29828 | 5.31527 | 2627 ft | 150 kts | 277° |
| 2026-04-27 00:08 | 59.30151 | 5.29661 | 2171 ft | 144 kts | 307° |
| 2026-04-27 00:09 | 59.30805 | 5.28189 | 1691 ft | 143 kts | 318° |
| 2026-04-27 00:09 | 59.31484 | 5.26853 | 1291 ft | 138 kts | 314° |
| 2026-04-27 00:09 | 59.32148 | 5.25533 | 884 ft | 133 kts | 318° |
| 2026-04-27 00:09 | 59.32777 | 5.24314 | 533 ft | 124 kts | 316° |
| 2026-04-27 00:10 | 59.33377 | 5.23135 | 294 ft | 122 kts | 317° |
| 2026-04-27 00:10 | 59.33960 | 5.21967 | 91 ft | 116 kts | 316° |
| 2026-04-27 00:10 | 59.34434 | 5.21021 | 79 ft | 74 kts | 314° |
| 2026-04-27 00:10 | 59.34622 | 5.20663 | 76 ft | 15 kts | 334° |
| 2026-04-27 00:11 | 59.34629 | 5.20618 | 76 ft | 8 kts | 127° |
| 2026-04-27 00:11 | 59.34538 | 5.20812 | 78 ft | 27 kts | 134° |
| 2026-04-27 00:11 | 59.34391 | 5.21111 | 80 ft | 25 kts | 124° |
| 2026-04-27 00:11 | 59.34368 | 5.21341 | 81 ft | 16 kts | 46° |
| 2026-04-27 00:12 | 59.34403 | 5.21491 | 81 ft | 11 kts | 129° |
| 2026-04-27 00:12 | 59.34378 | 5.21628 | 82 ft | 6 kts | 45° |
| 2026-04-27 00:12 | 59.34395 | 5.21661 | 82 ft | 0 kts | 44° |